sensor_id;sensor_type;location;lat;lon;timestamp;temperature;humidity
5150;DHT22;2593;52.466;13.436;2023-02-12T00:00:07;7.30;99.90
5150;DHT22;2593;52.466;13.436;2023-02-12T00:02:33;7.40;99.90
5150;DHT22;2593;52.466;13.436;2023-02-12T00:04:58;7.40;99.90
5150;DHT22;2593;52.466;13.436;2023-02-12T00:07:24;7.40;99.90
5150;DHT22;2593;52.466;13.436;2023-02-12T00:09:49;7.40;99.90
5150;DHT22;2593;52.466;13.436;2023-02-12T00:12:16;7.40;99.90
5150;DHT22;2593;52.466;13.436;2023-02-12T00:14:41;7.40;99.90
5150;DHT22;2593;52.466;13.436;2023-02-12T00:17:07;7.40;99.90
5150;DHT22;2593;52.466;13.436;2023-02-12T00:19:33;7.40;99.90
5150;DHT22;2593;52.466;13.436;2023-02-12T00:21:58;7.40;99.90
5150;DHT22;2593;52.466;13.436;2023-02-12T00:24:24;7.30;99.90
5150;DHT22;2593;52.466;13.436;2023-02-12T00:26:50;7.30;99.90
5150;DHT22;2593;52.466;13.436;2023-02-12T00:29:16;7.30;99.90
5150;DHT22;2593;52.466;13.436;2023-02-12T00:31:42;7.30;99.90
5150;DHT22;2593;52.466;13.436;2023-02-12T00:34:09;7.30;99.90
5150;DHT22;2593;52.466;13.436;2023-02-12T00:36:35;7.30;99.90
5150;DHT22;2593;52.466;13.436;2023-02-12T00:39:01;7.30;99.90
5150;DHT22;2593;52.466;13.436;2023-02-12T00:41:27;7.30;99.90
5150;DHT22;2593;52.466;13.436;2023-02-12T00:43:53;7.30;99.90
5150;DHT22;2593;52.466;13.436;2023-02-12T00:46:19;7.30;99.90
5150;DHT22;2593;52.466;13.436;2023-02-12T00:48:44;7.30;99.90
5150;DHT22;2593;52.466;13.436;2023-02-12T00:51:10;7.30;99.90
5150;DHT22;2593;52.466;13.436;2023-02-12T00:53:36;7.30;99.90
5150;DHT22;2593;52.466;13.436;2023-02-12T00:56:02;7.20;99.90
5150;DHT22;2593;52.466;13.436;2023-02-12T00:58:28;7.20;99.90
5150;DHT22;2593;52.466;13.436;2023-02-12T01:00:54;7.20;99.90
5150;DHT22;2593;52.466;13.436;2023-02-12T01:03:20;7.30;99.90
5150;DHT22;2593;52.466;13.436;2023-02-12T01:05:46;7.30;99.90
5150;DHT22;2593;52.466;13.436;2023-02-12T01:08:14;7.30;99.90
5150;DHT22;2593;52.466;13.436;2023-02-12T01:10:40;7.30;99.90
5150;DHT22;2593;52.466;13.436;2023-02-12T01:13:06;7.30;99.90
5150;DHT22;2593;52.466;13.436;2023-02-12T01:15:32;7.20;99.90
5150;DHT22;2593;52.466;13.436;2023-02-12T01:17:58;7.20;99.90
5150;DHT22;2593;52.466;13.436;2023-02-12T01:20:25;7.20;99.90
5150;DHT22;2593;52.466;13.436;2023-02-12T01:22:51;7.20;99.90
5150;DHT22;2593;52.466;13.436;2023-02-12T01:25:17;7.20;99.90
5150;DHT22;2593;52.466;13.436;2023-02-12T01:27:43;7.20;99.90
5150;DHT22;2593;52.466;13.436;2023-02-12T01:30:11;7.20;99.90
5150;DHT22;2593;52.466;13.436;2023-02-12T01:32:37;7.20;99.90
5150;DHT22;2593;52.466;13.436;2023-02-12T01:35:04;7.20;99.90
5150;DHT22;2593;52.466;13.436;2023-02-12T01:37:30;7.30;99.90
5150;DHT22;2593;52.466;13.436;2023-02-12T01:39:56;7.30;99.90
5150;DHT22;2593;52.466;13.436;2023-02-12T01:42:21;7.20;99.90
5150;DHT22;2593;52.466;13.436;2023-02-12T01:47:38;7.30;99.90
5150;DHT22;2593;52.466;13.436;2023-02-12T01:50:10;7.20;99.90
5150;DHT22;2593;52.466;13.436;2023-02-12T01:52:38;7.20;99.90
5150;DHT22;2593;52.466;13.436;2023-02-12T01:55:07;7.20;99.90
5150;DHT22;2593;52.466;13.436;2023-02-12T01:57:37;7.20;99.90
5150;DHT22;2593;52.466;13.436;2023-02-12T02:00:07;7.20;99.90
5150;DHT22;2593;52.466;13.436;2023-02-12T02:02:35;7.20;99.90
5150;DHT22;2593;52.466;13.436;2023-02-12T02:05:03;7.30;99.90
5150;DHT22;2593;52.466;13.436;2023-02-12T02:07:29;7.20;99.90
5150;DHT22;2593;52.466;13.436;2023-02-12T02:09:56;7.20;99.90
5150;DHT22;2593;52.466;13.436;2023-02-12T02:12:23;7.20;99.90
5150;DHT22;2593;52.466;13.436;2023-02-12T02:15:07;7.20;99.90
5150;DHT22;2593;52.466;13.436;2023-02-12T02:37:23;7.20;99.90
5150;DHT22;2593;52.466;13.436;2023-02-12T02:40:07;7.10;99.90
5150;DHT22;2593;52.466;13.436;2023-02-12T02:42:46;7.10;99.90
5150;DHT22;2593;52.466;13.436;2023-02-12T02:45:23;7.20;99.90
5150;DHT22;2593;52.466;13.436;2023-02-12T02:47:58;7.10;99.90
5150;DHT22;2593;52.466;13.436;2023-02-12T02:50:27;7.20;99.90
5150;DHT22;2593;52.466;13.436;2023-02-12T02:53:14;7.20;99.90
5150;DHT22;2593;52.466;13.436;2023-02-12T02:56:02;7.10;99.90
5150;DHT22;2593;52.466;13.436;2023-02-12T02:58:38;7.20;99.90
5150;DHT22;2593;52.466;13.436;2023-02-12T03:01:19;7.20;99.90
5150;DHT22;2593;52.466;13.436;2023-02-12T03:04:03;7.10;99.90
5150;DHT22;2593;52.466;13.436;2023-02-12T03:06:35;7.20;99.90
5150;DHT22;2593;52.466;13.436;2023-02-12T03:09:17;7.20;99.90
5150;DHT22;2593;52.466;13.436;2023-02-12T03:11:45;7.10;99.90
5150;DHT22;2593;52.466;13.436;2023-02-12T03:14:18;7.10;99.90
5150;DHT22;2593;52.466;13.436;2023-02-12T03:16:55;7.10;99.90
5150;DHT22;2593;52.466;13.436;2023-02-12T03:19:24;7.10;99.90
5150;DHT22;2593;52.466;13.436;2023-02-12T03:22:05;7.10;99.90
5150;DHT22;2593;52.466;13.436;2023-02-12T03:24:39;7.10;99.90
5150;DHT22;2593;52.466;13.436;2023-02-12T03:27:10;7.10;99.90
5150;DHT22;2593;52.466;13.436;2023-02-12T03:29:37;7.10;99.90
5150;DHT22;2593;52.466;13.436;2023-02-12T03:35:16;7.10;99.90
5150;DHT22;2593;52.466;13.436;2023-02-12T03:37:45;7.10;99.90
5150;DHT22;2593;52.466;13.436;2023-02-12T03:40:21;7.10;99.90
5150;DHT22;2593;52.466;13.436;2023-02-12T03:42:59;7.10;99.90
5150;DHT22;2593;52.466;13.436;2023-02-12T03:45:48;7.10;99.90
5150;DHT22;2593;52.466;13.436;2023-02-12T03:48:40;7.20;99.90
5150;DHT22;2593;52.466;13.436;2023-02-12T03:53:44;7.10;99.90
5150;DHT22;2593;52.466;13.436;2023-02-12T03:56:14;7.00;99.90
5150;DHT22;2593;52.466;13.436;2023-02-12T03:58:43;7.00;99.90
5150;DHT22;2593;52.466;13.436;2023-02-12T04:01:10;7.00;99.90
5150;DHT22;2593;52.466;13.436;2023-02-12T04:03:36;7.00;99.90
5150;DHT22;2593;52.466;13.436;2023-02-12T04:06:02;6.90;99.90
5150;DHT22;2593;52.466;13.436;2023-02-12T04:08:30;7.00;99.90
5150;DHT22;2593;52.466;13.436;2023-02-12T04:16:43;6.90;99.90
5150;DHT22;2593;52.466;13.436;2023-02-12T04:19:14;6.90;99.90
5150;DHT22;2593;52.466;13.436;2023-02-12T04:22:13;6.90;99.90
5150;DHT22;2593;52.466;13.436;2023-02-12T04:27:43;6.80;99.90
5150;DHT22;2593;52.466;13.436;2023-02-12T04:30:39;6.70;99.90
5150;DHT22;2593;52.466;13.436;2023-02-12T04:33:08;6.70;99.90
5150;DHT22;2593;52.466;13.436;2023-02-12T04:35:45;6.70;99.90
5150;DHT22;2593;52.466;13.436;2023-02-12T04:38:22;6.60;99.90
5150;DHT22;2593;52.466;13.436;2023-02-12T04:40:49;6.60;99.90
5150;DHT22;2593;52.466;13.436;2023-02-12T04:43:29;6.60;99.90
5150;DHT22;2593;52.466;13.436;2023-02-12T04:45:55;6.60;99.90
5150;DHT22;2593;52.466;13.436;2023-02-12T04:48:21;6.50;99.90
5150;DHT22;2593;52.466;13.436;2023-02-12T04:50:47;6.60;99.90
5150;DHT22;2593;52.466;13.436;2023-02-12T04:53:12;6.50;99.90
5150;DHT22;2593;52.466;13.436;2023-02-12T04:55:38;6.50;99.90
5150;DHT22;2593;52.466;13.436;2023-02-12T04:58:04;6.50;99.90
5150;DHT22;2593;52.466;13.436;2023-02-12T05:00:30;6.50;99.90
5150;DHT22;2593;52.466;13.436;2023-02-12T05:02:56;6.40;99.90
5150;DHT22;2593;52.466;13.436;2023-02-12T05:05:22;6.40;99.90
5150;DHT22;2593;52.466;13.436;2023-02-12T05:07:47;6.40;99.90
5150;DHT22;2593;52.466;13.436;2023-02-12T05:10:13;6.30;99.90
5150;DHT22;2593;52.466;13.436;2023-02-12T05:12:39;6.40;99.90
5150;DHT22;2593;52.466;13.436;2023-02-12T05:15:05;6.40;99.90
5150;DHT22;2593;52.466;13.436;2023-02-12T05:17:31;6.40;99.90
5150;DHT22;2593;52.466;13.436;2023-02-12T05:19:56;6.50;99.90
5150;DHT22;2593;52.466;13.436;2023-02-12T05:22:22;6.50;99.90
5150;DHT22;2593;52.466;13.436;2023-02-12T05:24:48;6.50;99.90
5150;DHT22;2593;52.466;13.436;2023-02-12T05:27:14;6.50;99.90
5150;DHT22;2593;52.466;13.436;2023-02-12T05:29:40;6.60;99.90
5150;DHT22;2593;52.466;13.436;2023-02-12T05:32:06;6.60;99.90
5150;DHT22;2593;52.466;13.436;2023-02-12T05:34:32;6.60;99.90
5150;DHT22;2593;52.466;13.436;2023-02-12T05:36:58;6.60;99.90
5150;DHT22;2593;52.466;13.436;2023-02-12T05:39:24;6.60;99.90
5150;DHT22;2593;52.466;13.436;2023-02-12T05:41:50;6.60;99.90
5150;DHT22;2593;52.466;13.436;2023-02-12T05:44:15;6.70;99.90
5150;DHT22;2593;52.466;13.436;2023-02-12T05:46:41;6.70;99.90
5150;DHT22;2593;52.466;13.436;2023-02-12T05:49:08;6.70;99.90
5150;DHT22;2593;52.466;13.436;2023-02-12T05:51:34;6.70;99.90
5150;DHT22;2593;52.466;13.436;2023-02-12T05:54:02;6.70;99.90
5150;DHT22;2593;52.466;13.436;2023-02-12T05:56:34;6.70;99.90
5150;DHT22;2593;52.466;13.436;2023-02-12T05:59:06;6.70;99.90
5150;DHT22;2593;52.466;13.436;2023-02-12T06:01:33;6.70;99.90
5150;DHT22;2593;52.466;13.436;2023-02-12T06:04:00;6.70;99.90
5150;DHT22;2593;52.466;13.436;2023-02-12T06:06:27;6.70;99.90
5150;DHT22;2593;52.466;13.436;2023-02-12T06:08:53;6.70;99.90
5150;DHT22;2593;52.466;13.436;2023-02-12T06:11:19;6.70;99.90
5150;DHT22;2593;52.466;13.436;2023-02-12T06:13:46;6.80;99.90
5150;DHT22;2593;52.466;13.436;2023-02-12T06:16:17;6.70;99.90
5150;DHT22;2593;52.466;13.436;2023-02-12T06:18:43;6.70;99.90
5150;DHT22;2593;52.466;13.436;2023-02-12T06:21:08;6.70;99.90
5150;DHT22;2593;52.466;13.436;2023-02-12T06:23:34;6.70;99.90
5150;DHT22;2593;52.466;13.436;2023-02-12T06:26:00;6.70;99.90
5150;DHT22;2593;52.466;13.436;2023-02-12T06:28:25;6.70;99.90
5150;DHT22;2593;52.466;13.436;2023-02-12T06:30:51;6.70;99.90
5150;DHT22;2593;52.466;13.436;2023-02-12T06:33:17;6.70;99.90
5150;DHT22;2593;52.466;13.436;2023-02-12T06:35:42;6.70;99.90
5150;DHT22;2593;52.466;13.436;2023-02-12T06:38:09;6.80;99.90
5150;DHT22;2593;52.466;13.436;2023-02-12T06:40:35;6.80;99.90
5150;DHT22;2593;52.466;13.436;2023-02-12T06:43:00;6.80;99.90
5150;DHT22;2593;52.466;13.436;2023-02-12T06:45:26;6.80;99.90
5150;DHT22;2593;52.466;13.436;2023-02-12T06:47:52;6.80;99.90
5150;DHT22;2593;52.466;13.436;2023-02-12T06:50:18;6.80;99.90
5150;DHT22;2593;52.466;13.436;2023-02-12T06:52:43;6.80;99.90
5150;DHT22;2593;52.466;13.436;2023-02-12T06:55:09;6.80;99.90
5150;DHT22;2593;52.466;13.436;2023-02-12T06:57:35;6.80;99.90
5150;DHT22;2593;52.466;13.436;2023-02-12T07:00:00;6.80;99.90
5150;DHT22;2593;52.466;13.436;2023-02-12T07:02:26;6.80;99.90
5150;DHT22;2593;52.466;13.436;2023-02-12T07:04:52;6.80;99.90
5150;DHT22;2593;52.466;13.436;2023-02-12T07:07:17;6.80;99.90
5150;DHT22;2593;52.466;13.436;2023-02-12T07:09:43;6.90;99.90
5150;DHT22;2593;52.466;13.436;2023-02-12T07:12:09;6.90;99.90
5150;DHT22;2593;52.466;13.436;2023-02-12T07:14:34;6.90;99.90
5150;DHT22;2593;52.466;13.436;2023-02-12T07:17:00;6.90;99.90
5150;DHT22;2593;52.466;13.436;2023-02-12T07:19:28;6.90;99.90
5150;DHT22;2593;52.466;13.436;2023-02-12T07:21:54;7.00;99.90
5150;DHT22;2593;52.466;13.436;2023-02-12T07:24:20;7.00;99.90
5150;DHT22;2593;52.466;13.436;2023-02-12T07:26:46;7.00;99.90
5150;DHT22;2593;52.466;13.436;2023-02-12T07:29:12;7.00;99.90
5150;DHT22;2593;52.466;13.436;2023-02-12T07:31:39;7.10;99.90
5150;DHT22;2593;52.466;13.436;2023-02-12T07:34:04;7.10;99.90
5150;DHT22;2593;52.466;13.436;2023-02-12T07:36:31;7.20;99.90
5150;DHT22;2593;52.466;13.436;2023-02-12T07:38:57;7.20;99.90
5150;DHT22;2593;52.466;13.436;2023-02-12T07:41:26;7.20;99.90
5150;DHT22;2593;52.466;13.436;2023-02-12T07:43:54;7.20;99.90
5150;DHT22;2593;52.466;13.436;2023-02-12T07:46:31;7.20;99.90
5150;DHT22;2593;52.466;13.436;2023-02-12T07:48:59;7.30;99.90
5150;DHT22;2593;52.466;13.436;2023-02-12T07:51:26;7.30;99.90
5150;DHT22;2593;52.466;13.436;2023-02-12T07:53:52;7.30;99.90
5150;DHT22;2593;52.466;13.436;2023-02-12T07:56:21;7.40;99.90
5150;DHT22;2593;52.466;13.436;2023-02-12T07:58:48;7.40;99.90
5150;DHT22;2593;52.466;13.436;2023-02-12T08:01:16;7.40;99.90
5150;DHT22;2593;52.466;13.436;2023-02-12T08:03:42;7.40;99.90
5150;DHT22;2593;52.466;13.436;2023-02-12T08:06:14;7.40;99.90
5150;DHT22;2593;52.466;13.436;2023-02-12T08:08:40;7.50;99.90
5150;DHT22;2593;52.466;13.436;2023-02-12T08:11:08;7.50;99.90
5150;DHT22;2593;52.466;13.436;2023-02-12T08:13:34;7.60;99.90
5150;DHT22;2593;52.466;13.436;2023-02-12T08:16:10;7.60;99.90
5150;DHT22;2593;52.466;13.436;2023-02-12T08:18:36;7.60;99.90
5150;DHT22;2593;52.466;13.436;2023-02-12T08:21:04;7.60;99.90
5150;DHT22;2593;52.466;13.436;2023-02-12T08:23:30;7.60;99.90
5150;DHT22;2593;52.466;13.436;2023-02-12T08:28:47;7.70;99.90
5150;DHT22;2593;52.466;13.436;2023-02-12T08:31:16;7.60;99.90
5150;DHT22;2593;52.466;13.436;2023-02-12T08:33:43;7.70;99.90
5150;DHT22;2593;52.466;13.436;2023-02-12T08:36:12;7.80;99.90
5150;DHT22;2593;52.466;13.436;2023-02-12T08:38:40;7.80;99.90
5150;DHT22;2593;52.466;13.436;2023-02-12T08:41:08;7.80;99.90
5150;DHT22;2593;52.466;13.436;2023-02-12T08:43:35;7.80;99.90
5150;DHT22;2593;52.466;13.436;2023-02-12T08:46:04;7.80;99.90
5150;DHT22;2593;52.466;13.436;2023-02-12T08:48:31;7.90;99.90
5150;DHT22;2593;52.466;13.436;2023-02-12T08:51:07;7.90;99.90
5150;DHT22;2593;52.466;13.436;2023-02-12T08:53:33;7.90;99.90
5150;DHT22;2593;52.466;13.436;2023-02-12T08:55:58;8.00;99.90
5150;DHT22;2593;52.466;13.436;2023-02-12T08:58:24;8.00;99.90
5150;DHT22;2593;52.466;13.436;2023-02-12T09:00:50;8.00;99.90
5150;DHT22;2593;52.466;13.436;2023-02-12T09:03:16;8.00;99.90
5150;DHT22;2593;52.466;13.436;2023-02-12T09:05:41;8.00;99.90
5150;DHT22;2593;52.466;13.436;2023-02-12T09:08:07;8.00;99.90
5150;DHT22;2593;52.466;13.436;2023-02-12T09:10:37;8.10;99.90
5150;DHT22;2593;52.466;13.436;2023-02-12T09:13:03;8.10;99.90
5150;DHT22;2593;52.466;13.436;2023-02-12T09:15:28;8.10;99.90
5150;DHT22;2593;52.466;13.436;2023-02-12T09:17:54;8.10;99.90
5150;DHT22;2593;52.466;13.436;2023-02-12T09:20:20;8.20;99.90
5150;DHT22;2593;52.466;13.436;2023-02-12T09:22:45;8.20;99.90
5150;DHT22;2593;52.466;13.436;2023-02-12T09:25:11;8.10;99.90
5150;DHT22;2593;52.466;13.436;2023-02-12T09:27:36;8.20;99.90
5150;DHT22;2593;52.466;13.436;2023-02-12T09:30:02;8.10;99.90
5150;DHT22;2593;52.466;13.436;2023-02-12T09:32:28;8.10;99.90
5150;DHT22;2593;52.466;13.436;2023-02-12T09:34:54;8.10;99.90
5150;DHT22;2593;52.466;13.436;2023-02-12T09:37:20;8.20;99.90
5150;DHT22;2593;52.466;13.436;2023-02-12T09:39:45;8.20;99.90
5150;DHT22;2593;52.466;13.436;2023-02-12T09:45:19;8.40;99.90
5150;DHT22;2593;52.466;13.436;2023-02-12T09:47:47;8.40;99.90
5150;DHT22;2593;52.466;13.436;2023-02-12T09:50:33;8.50;99.90
5150;DHT22;2593;52.466;13.436;2023-02-12T09:53:02;8.60;99.90
5150;DHT22;2593;52.466;13.436;2023-02-12T09:55:31;8.70;99.90
5150;DHT22;2593;52.466;13.436;2023-02-12T09:57:59;8.90;99.90
5150;DHT22;2593;52.466;13.436;2023-02-12T10:00:28;9.00;99.90
5150;DHT22;2593;52.466;13.436;2023-02-12T10:02:59;9.00;99.90
5150;DHT22;2593;52.466;13.436;2023-02-12T10:05:33;9.00;99.90
5150;DHT22;2593;52.466;13.436;2023-02-12T10:08:25;8.90;99.90
5150;DHT22;2593;52.466;13.436;2023-02-12T10:10:53;8.90;99.90
5150;DHT22;2593;52.466;13.436;2023-02-12T10:13:41;8.80;99.90
5150;DHT22;2593;52.466;13.436;2023-02-12T10:19:27;8.70;99.90
5150;DHT22;2593;52.466;13.436;2023-02-12T10:22:27;8.90;99.90
5150;DHT22;2593;52.466;13.436;2023-02-12T10:24:59;8.90;99.90
5150;DHT22;2593;52.466;13.436;2023-02-12T10:27:39;8.90;99.90
5150;DHT22;2593;52.466;13.436;2023-02-12T10:30:25;8.90;99.90
5150;DHT22;2593;52.466;13.436;2023-02-12T10:33:06;9.00;99.90
5150;DHT22;2593;52.466;13.436;2023-02-12T10:35:35;9.10;99.90
5150;DHT22;2593;52.466;13.436;2023-02-12T10:38:13;9.20;99.90
5150;DHT22;2593;52.466;13.436;2023-02-12T10:40:43;9.40;99.90
5150;DHT22;2593;52.466;13.436;2023-02-12T10:43:13;9.50;99.90
5150;DHT22;2593;52.466;13.436;2023-02-12T10:45:41;9.50;99.90
5150;DHT22;2593;52.466;13.436;2023-02-12T10:48:16;9.60;99.90
5150;DHT22;2593;52.466;13.436;2023-02-12T10:53:42;9.50;99.90
5150;DHT22;2593;52.466;13.436;2023-02-12T10:58:59;9.20;99.90
5150;DHT22;2593;52.466;13.436;2023-02-12T11:03:54;8.90;99.90
5150;DHT22;2593;52.466;13.436;2023-02-12T11:06:23;8.80;99.90
5150;DHT22;2593;52.466;13.436;2023-02-12T11:08:50;8.80;99.90
5150;DHT22;2593;52.466;13.436;2023-02-12T11:11:29;8.80;99.90
5150;DHT22;2593;52.466;13.436;2023-02-12T11:14:18;8.70;99.90
5150;DHT22;2593;52.466;13.436;2023-02-12T11:16:57;8.60;99.90
5150;DHT22;2593;52.466;13.436;2023-02-12T11:19:25;8.70;99.90
5150;DHT22;2593;52.466;13.436;2023-02-12T11:22:05;8.80;99.90
5150;DHT22;2593;52.466;13.436;2023-02-12T11:24:33;8.80;99.90
5150;DHT22;2593;52.466;13.436;2023-02-12T11:27:21;8.80;99.90
5150;DHT22;2593;52.466;13.436;2023-02-12T11:30:19;8.80;99.90
5150;DHT22;2593;52.466;13.436;2023-02-12T11:32:45;8.80;99.90
5150;DHT22;2593;52.466;13.436;2023-02-12T11:35:22;8.80;99.90
5150;DHT22;2593;52.466;13.436;2023-02-12T11:38:02;8.70;99.90
5150;DHT22;2593;52.466;13.436;2023-02-12T11:40:32;8.60;99.90
5150;DHT22;2593;52.466;13.436;2023-02-12T11:43:01;8.60;99.90
5150;DHT22;2593;52.466;13.436;2023-02-12T11:45:44;8.50;99.90
5150;DHT22;2593;52.466;13.436;2023-02-12T11:48:38;8.40;99.90
5150;DHT22;2593;52.466;13.436;2023-02-12T11:51:07;8.50;99.90
5150;DHT22;2593;52.466;13.436;2023-02-12T11:53:42;8.60;99.90
5150;DHT22;2593;52.466;13.436;2023-02-12T11:56:12;8.70;99.90
5150;DHT22;2593;52.466;13.436;2023-02-12T11:58:39;8.70;99.90
5150;DHT22;2593;52.466;13.436;2023-02-12T12:04:14;8.60;99.90
5150;DHT22;2593;52.466;13.436;2023-02-12T12:17:49;8.50;99.90
5150;DHT22;2593;52.466;13.436;2023-02-12T12:20:40;8.60;99.90
5150;DHT22;2593;52.466;13.436;2023-02-12T12:23:37;8.70;99.90
5150;DHT22;2593;52.466;13.436;2023-02-12T12:26:22;8.80;99.90
5150;DHT22;2593;52.466;13.436;2023-02-12T12:31:42;8.90;99.90
5150;DHT22;2593;52.466;13.436;2023-02-12T12:34:18;8.90;99.90
5150;DHT22;2593;52.466;13.436;2023-02-12T12:39:35;8.80;99.90
5150;DHT22;2593;52.466;13.436;2023-02-12T12:42:37;8.70;99.90
5150;DHT22;2593;52.466;13.436;2023-02-12T13:04:05;9.30;99.90
5150;DHT22;2593;52.466;13.436;2023-02-12T13:07:04;9.30;99.90
5150;DHT22;2593;52.466;13.436;2023-02-12T13:12:41;9.30;99.90
5150;DHT22;2593;52.466;13.436;2023-02-12T13:26:04;9.20;99.90
5150;DHT22;2593;52.466;13.436;2023-02-12T13:28:36;9.20;99.90
5150;DHT22;2593;52.466;13.436;2023-02-12T13:31:08;9.20;99.90
5150;DHT22;2593;52.466;13.436;2023-02-12T13:36:05;9.10;99.90
5150;DHT22;2593;52.466;13.436;2023-02-12T13:38:35;9.20;99.90
5150;DHT22;2593;52.466;13.436;2023-02-12T13:41:06;9.20;99.90
5150;DHT22;2593;52.466;13.436;2023-02-12T13:46:19;9.10;99.90
5150;DHT22;2593;52.466;13.436;2023-02-12T13:51:49;9.20;99.90
5150;DHT22;2593;52.466;13.436;2023-02-12T13:56:55;9.40;99.90
5150;DHT22;2593;52.466;13.436;2023-02-12T14:04:57;9.40;99.90
5150;DHT22;2593;52.466;13.436;2023-02-12T14:07:55;9.40;1.00
5150;DHT22;2593;52.466;13.436;2023-02-12T14:13:21;9.50;1.00
5150;DHT22;2593;52.466;13.436;2023-02-12T14:15:54;9.60;1.00
5150;DHT22;2593;52.466;13.436;2023-02-12T14:20:46;9.60;99.90
5150;DHT22;2593;52.466;13.436;2023-02-12T14:23:27;9.70;99.90
5150;DHT22;2593;52.466;13.436;2023-02-12T14:26:00;9.60;99.90
5150;DHT22;2593;52.466;13.436;2023-02-12T14:33:44;9.50;92.50
5150;DHT22;2593;52.466;13.436;2023-02-12T14:36:40;9.50;99.90
5150;DHT22;2593;52.466;13.436;2023-02-12T14:39:33;9.50;99.90
5150;DHT22;2593;52.466;13.436;2023-02-12T14:47:13;9.40;99.90
5150;DHT22;2593;52.466;13.436;2023-02-12T14:49:51;9.40;99.90
5150;DHT22;2593;52.466;13.436;2023-02-12T14:52:23;9.30;99.90
5150;DHT22;2593;52.466;13.436;2023-02-12T14:57:39;9.30;1.00
5150;DHT22;2593;52.466;13.436;2023-02-12T15:08:57;9.30;99.90
5150;DHT22;2593;52.466;13.436;2023-02-12T15:11:37;9.20;99.90
5150;DHT22;2593;52.466;13.436;2023-02-12T15:14:14;9.20;1.00
5150;DHT22;2593;52.466;13.436;2023-02-12T15:17:07;9.20;1.00
5150;DHT22;2593;52.466;13.436;2023-02-12T15:19:54;9.10;1.00
5150;DHT22;2593;52.466;13.436;2023-02-12T15:22:23;9.00;99.90
5150;DHT22;2593;52.466;13.436;2023-02-12T15:24:50;9.00;1.00
5150;DHT22;2593;52.466;13.436;2023-02-12T15:27:17;9.00;1.00
5150;DHT22;2593;52.466;13.436;2023-02-12T15:29:48;9.00;1.00
5150;DHT22;2593;52.466;13.436;2023-02-12T15:32:22;9.00;1.00
5150;DHT22;2593;52.466;13.436;2023-02-12T15:34:49;9.00;96.40
5150;DHT22;2593;52.466;13.436;2023-02-12T15:37:27;8.90;99.90
5150;DHT22;2593;52.466;13.436;2023-02-12T15:39:56;8.90;99.90
5150;DHT22;2593;52.466;13.436;2023-02-12T15:42:33;8.90;1.00
5150;DHT22;2593;52.466;13.436;2023-02-12T15:47:41;8.90;99.90
5150;DHT22;2593;52.466;13.436;2023-02-12T15:50:15;8.90;99.90
5150;DHT22;2593;52.466;13.436;2023-02-12T15:52:43;8.90;99.90
5150;DHT22;2593;52.466;13.436;2023-02-12T15:55:19;8.90;99.90
5150;DHT22;2593;52.466;13.436;2023-02-12T15:57:50;8.90;99.90
5150;DHT22;2593;52.466;13.436;2023-02-12T16:02:54;8.90;99.90
5150;DHT22;2593;52.466;13.436;2023-02-12T16:05:20;8.90;99.90
5150;DHT22;2593;52.466;13.436;2023-02-12T16:07:46;8.80;99.90
5150;DHT22;2593;52.466;13.436;2023-02-12T16:10:17;8.80;1.00
5150;DHT22;2593;52.466;13.436;2023-02-12T16:12:44;8.80;1.00
5150;DHT22;2593;52.466;13.436;2023-02-12T16:15:26;8.80;1.00
5150;DHT22;2593;52.466;13.436;2023-02-12T16:17:52;8.80;1.00
5150;DHT22;2593;52.466;13.436;2023-02-12T16:20:21;8.80;1.00
5150;DHT22;2593;52.466;13.436;2023-02-12T16:22:50;8.80;67.30
5150;DHT22;2593;52.466;13.436;2023-02-12T16:25:21;8.80;99.90
5150;DHT22;2593;52.466;13.436;2023-02-12T16:30:38;8.70;1.00
5150;DHT22;2593;52.466;13.436;2023-02-12T16:38:47;8.50;1.00
5150;DHT22;2593;52.466;13.436;2023-02-12T16:43:42;8.70;1.00
5150;DHT22;2593;52.466;13.436;2023-02-12T16:46:08;8.60;1.00
5150;DHT22;2593;52.466;13.436;2023-02-12T16:49:00;8.70;1.00
5150;DHT22;2593;52.466;13.436;2023-02-12T16:51:34;8.60;99.90
5150;DHT22;2593;52.466;13.436;2023-02-12T16:54:02;8.60;99.90
5150;DHT22;2593;52.466;13.436;2023-02-12T16:56:36;8.60;1.00
5150;DHT22;2593;52.466;13.436;2023-02-12T16:59:03;8.50;99.90
5150;DHT22;2593;52.466;13.436;2023-02-12T17:01:30;8.50;99.90
5150;DHT22;2593;52.466;13.436;2023-02-12T17:03:57;8.50;99.90
5150;DHT22;2593;52.466;13.436;2023-02-12T17:06:26;8.50;99.90
5150;DHT22;2593;52.466;13.436;2023-02-12T17:08:52;8.50;99.90
5150;DHT22;2593;52.466;13.436;2023-02-12T17:11:18;8.50;99.90
5150;DHT22;2593;52.466;13.436;2023-02-12T17:13:46;8.50;99.90
5150;DHT22;2593;52.466;13.436;2023-02-12T17:16:12;8.50;99.90
5150;DHT22;2593;52.466;13.436;2023-02-12T17:18:39;8.50;99.90
5150;DHT22;2593;52.466;13.436;2023-02-12T17:21:28;8.50;1.00
5150;DHT22;2593;52.466;13.436;2023-02-12T17:23:55;8.50;1.00
5150;DHT22;2593;52.466;13.436;2023-02-12T17:26:22;8.50;1.00
5150;DHT22;2593;52.466;13.436;2023-02-12T17:28:48;8.50;89.40
5150;DHT22;2593;52.466;13.436;2023-02-12T17:31:13;8.50;99.90
5150;DHT22;2593;52.466;13.436;2023-02-12T17:33:39;8.50;99.90
5150;DHT22;2593;52.466;13.436;2023-02-12T17:36:05;8.50;1.00
5150;DHT22;2593;52.466;13.436;2023-02-12T17:38:31;8.50;99.90
5150;DHT22;2593;52.466;13.436;2023-02-12T17:40:57;8.50;99.90
5150;DHT22;2593;52.466;13.436;2023-02-12T17:43:22;8.60;1.00
5150;DHT22;2593;52.466;13.436;2023-02-12T17:45:48;8.60;1.00
5150;DHT22;2593;52.466;13.436;2023-02-12T17:48:15;8.60;99.90
5150;DHT22;2593;52.466;13.436;2023-02-12T17:50:41;8.50;99.90
5150;DHT22;2593;52.466;13.436;2023-02-12T17:53:08;8.50;99.90
5150;DHT22;2593;52.466;13.436;2023-02-12T17:55:38;8.50;99.90
5150;DHT22;2593;52.466;13.436;2023-02-12T17:58:05;8.50;1.00
5150;DHT22;2593;52.466;13.436;2023-02-12T18:00:31;8.50;1.00
5150;DHT22;2593;52.466;13.436;2023-02-12T18:02:56;8.40;1.00
5150;DHT22;2593;52.466;13.436;2023-02-12T18:05:22;8.40;1.00
5150;DHT22;2593;52.466;13.436;2023-02-12T18:07:48;8.50;1.00
5150;DHT22;2593;52.466;13.436;2023-02-12T18:10:14;8.50;1.00
5150;DHT22;2593;52.466;13.436;2023-02-12T18:12:39;8.50;1.00
5150;DHT22;2593;52.466;13.436;2023-02-12T18:15:06;8.50;99.90
5150;DHT22;2593;52.466;13.436;2023-02-12T18:17:33;8.40;99.90
5150;DHT22;2593;52.466;13.436;2023-02-12T18:19:59;8.40;99.90
5150;DHT22;2593;52.466;13.436;2023-02-12T18:22:25;8.30;99.90
5150;DHT22;2593;52.466;13.436;2023-02-12T18:24:51;8.20;99.90
5150;DHT22;2593;52.466;13.436;2023-02-12T18:27:16;8.20;99.90
5150;DHT22;2593;52.466;13.436;2023-02-12T18:29:45;8.10;99.90
5150;DHT22;2593;52.466;13.436;2023-02-12T18:32:11;8.10;99.90
5150;DHT22;2593;52.466;13.436;2023-02-12T18:34:41;8.10;99.90
5150;DHT22;2593;52.466;13.436;2023-02-12T18:37:07;8.10;99.90
5150;DHT22;2593;52.466;13.436;2023-02-12T18:39:33;8.10;99.90
5150;DHT22;2593;52.466;13.436;2023-02-12T18:41:59;8.10;99.90
5150;DHT22;2593;52.466;13.436;2023-02-12T18:44:24;8.00;99.90
5150;DHT22;2593;52.466;13.436;2023-02-12T18:46:50;8.00;99.90
5150;DHT22;2593;52.466;13.436;2023-02-12T18:49:15;8.00;99.90
5150;DHT22;2593;52.466;13.436;2023-02-12T18:51:41;7.90;99.90
5150;DHT22;2593;52.466;13.436;2023-02-12T18:54:10;7.90;99.90
5150;DHT22;2593;52.466;13.436;2023-02-12T18:56:39;8.00;99.90
5150;DHT22;2593;52.466;13.436;2023-02-12T18:59:06;7.90;99.90
5150;DHT22;2593;52.466;13.436;2023-02-12T19:01:33;7.90;99.90
5150;DHT22;2593;52.466;13.436;2023-02-12T19:04:00;7.90;99.90
5150;DHT22;2593;52.466;13.436;2023-02-12T19:06:27;7.90;99.90